Time;durP1;ratioP1;P1;durP2;ratioP2;P2;SDS_P1;SDS_P2;PMS_P1;PMS_P2;Temp;Humidity;BMP_temperature;BMP_pressure;BME280_temperature;BME280_humidity;BME280_pressure;Samples;Min_cycle;Max_cycle;Signal;HPM_P1;HPM_P2
2021/01/26 00:02:11;;;;;;;36.65;15.90;;;;;;;1.83;83.11;95939.72;4965599;28;20031;-61
2021/01/26 00:04:37;;;;;;;37.20;16.55;;;;;;;1.96;83.17;95944.81;4967237;28;20034;-62
2021/01/26 00:07:02;;;;;;;34.67;15.57;;;;;;;1.93;82.63;95950.97;4966948;28;20041;-61
2021/01/26 00:09:28;;;;;;;43.17;16.10;;;;;;;2.06;82.85;95954.47;4965747;28;20089;-64
2021/01/26 00:11:53;;;;;;;71.78;29.27;;;;;;;2.07;82.99;95951.41;4966643;28;20039;-63
2021/01/26 00:14:18;;;;;;;67.05;29.98;;;;;;;1.98;82.78;95936.28;4965366;28;20058;-62
2021/01/26 00:16:44;;;;;;;71.85;31.63;;;;;;;1.94;82.15;95946.31;4976269;28;20631;-63
2021/01/26 00:19:09;;;;;;;101.78;44.13;;;;;;;1.98;81.99;95952.66;4985244;28;20042;-63
2021/01/26 00:21:35;;;;;;;65.97;27.88;;;;;;;1.96;81.56;95954.97;4984623;28;20038;-62
2021/01/26 00:24:00;;;;;;;50.00;21.33;;;;;;;1.69;83.29;95956.44;4986227;28;20045;-62
2021/01/26 00:26:25;;;;;;;46.97;18.83;;;;;;;1.52;83.49;95946.50;4986351;28;20128;-64
2021/01/26 00:28:51;;;;;;;39.92;18.38;;;;;;;1.54;84.16;95944.25;4984825;28;20104;-63
2021/01/26 00:31:16;;;;;;;42.45;18.58;;;;;;;1.65;83.08;95954.69;4986335;28;20464;-62
2021/01/26 00:33:42;;;;;;;40.05;16.67;;;;;;;1.51;83.92;95939.47;4984338;28;20528;-63
2021/01/26 00:36:07;;;;;;;40.15;16.30;;;;;;;1.43;82.81;95918.53;4984264;28;20567;-64
2021/01/26 00:38:33;;;;;;;39.20;17.85;;;;;;;1.23;83.14;95896.81;4986296;28;20069;-63
2021/01/26 00:40:58;;;;;;;60.28;26.52;;;;;;;1.58;84.93;95966.97;4985714;28;20027;-63
2021/01/26 00:43:23;;;;;;;61.30;27.33;;;;;;;1.31;84.33;95893.97;4985859;28;20276;-63
2021/01/26 00:45:49;;;;;;;61.75;25.92;;;;;;;1.77;83.96;95962.91;4978250;28;20113;-62
2021/01/26 00:48:17;;;;;;;46.78;22.33;;;;;;;1.58;83.89;95928.00;4966727;28;20099;-62
2021/01/26 00:50:42;;;;;;;44.00;17.63;;;;;;;0.91;83.88;95813.16;4981067;28;20031;-64
2021/01/26 00:53:08;;;;;;;45.15;18.52;;;;;;;1.68;83.78;95954.00;4964877;28;20037;-64
2021/01/26 00:55:34;;;;;;;32.72;12.52;;;;;;;1.66;83.81;95951.63;4965904;28;20034;-62
2021/01/26 00:58:00;;;;;;;30.73;11.30;;;;;;;1.62;82.92;95909.78;4980820;28;20033;-61
2021/01/26 01:00:32;;;;;;;29.25;11.15;;;;;;;1.58;82.95;95917.88;4980588;28;20034;-62
2021/01/26 01:02:58;;;;;;;40.57;11.53;;;;;;;1.47;84.36;95911.25;4980403;28;20092;-61
2021/01/26 01:05:23;;;;;;;28.02;7.82;;;;;;;0.29;85.98;95761.59;4965908;28;20270;-62
2021/01/26 01:07:49;;;;;;;23.42;7.13;;;;;;;1.16;86.57;95896.56;4966026;28;20414;-62
2021/01/26 01:10:18;;;;;;;16.73;6.30;;;;;;;0.08;85.52;95733.63;4980694;28;20043;-63
2021/01/26 01:12:44;;;;;;;10.45;5.07;;;;;;;0.61;86.40;95828.88;4966094;28;20113;-61
2021/01/26 01:15:10;;;;;;;9.32;3.63;;;;;;;1.22;86.48;95915.09;4980590;28;20502;-62
2021/01/26 01:17:36;;;;;;;17.17;5.68;;;;;;;1.10;85.28;95878.84;4979679;28;20644;-62
2021/01/26 01:20:03;;;;;;;11.65;6.30;;;;;;;1.11;85.74;95873.03;4985528;28;20125;-62
2021/01/26 01:22:29;;;;;;;16.38;7.15;;;;;;;1.35;85.27;95905.81;4985537;28;20018;-62
2021/01/26 01:24:54;;;;;;;16.73;6.75;;;;;;;1.35;84.28;95883.97;4985374;28;20053;-62
2021/01/26 01:27:20;;;;;;;26.98;10.15;;;;;;;1.05;84.32;95849.88;4985151;28;20121;-62
2021/01/26 01:29:45;;;;;;;27.45;12.02;;;;;;;1.35;84.52;95878.53;4982946;28;20038;-61
2021/01/26 01:32:10;;;;;;;25.25;11.13;;;;;;;1.41;84.80;95911.81;4985356;28;20502;-63
2021/01/26 01:34:36;;;;;;;35.13;13.38;;;;;;;1.39;84.91;95886.84;4984175;28;20189;-61
2021/01/26 01:37:02;;;;;;;31.30;12.25;;;;;;;1.41;85.48;95896.25;4985540;28;20073;-61
2021/01/26 01:39:27;;;;;;;31.42;13.13;;;;;;;1.36;86.72;95877.38;4984950;28;20172;-62
2021/01/26 01:41:53;;;;;;;29.25;12.45;;;;;;;1.29;86.56;95871.72;4983780;28;20022;-62
2021/01/26 01:44:18;;;;;;;41.60;15.95;;;;;;;1.44;85.72;95862.84;4985159;28;20477;-62
2021/01/26 01:46:50;;;;;;;35.38;15.48;;;;;;;0.65;86.46;95753.50;4985188;28;20042;-62
2021/01/26 01:49:21;;;;;;;38.45;17.98;;;;;;;0.87;86.37;95804.84;4985179;28;20030;-63
2021/01/26 01:51:47;;;;;;;46.47;19.13;;;;;;;0.48;86.75;95742.81;4983397;28;20129;-63
2021/01/26 01:54:23;;;;;;;39.45;15.70;;;;;;;1.42;86.04;95867.06;4984900;28;20062;-62
2021/01/26 01:57:12;;;;;;;36.30;16.80;;;;;;;1.56;85.00;95849.19;4983841;28;20508;-61
2021/01/26 01:59:51;;;;;;;30.05;13.50;;;;;;;1.36;84.86;95833.75;4984973;28;20109;-62
2021/01/26 02:02:17;;;;;;;25.77;11.32;;;;;;;1.31;85.60;95855.78;4983415;28;20042;-63
2021/01/26 02:04:43;;;;;;;23.13;11.15;;;;;;;1.38;85.66;95842.38;4984966;28;20030;-62
2021/01/26 02:07:10;;;;;;;21.85;9.60;;;;;;;1.43;85.14;95844.91;4984765;28;20042;-62
2021/01/26 02:09:38;;;;;;;27.80;12.32;;;;;;;1.25;85.43;95838.06;4984601;28;20120;-62
2021/01/26 02:12:05;;;;;;;28.13;10.57;;;;;;;0.32;87.63;95754.72;4984874;28;20044;-64
2021/01/26 02:14:34;;;;;;;25.23;10.38;;;;;;;1.03;86.38;95841.22;4985052;28;20042;-64
2021/01/26 02:17:18;;;;;;;22.25;10.20;;;;;;;0.63;88.47;95847.63;4984655;28;20043;-64
2021/01/26 02:20:26;;;;;;;25.85;10.95;;;;;;;0.24;90.72;95840.00;4985012;28;20165;-62
2021/01/26 02:23:12;;;;;;;25.58;10.90;;;;;;;0.43;91.02;95830.19;4985145;28;20073;-63
2021/01/26 02:25:49;;;;;;;28.38;13.45;;;;;;;0.45;90.50;95825.19;4984967;28;20045;-62
2021/01/26 02:28:35;;;;;;;29.80;11.63;;;;;;;0.20;91.08;95785.41;4999808;28;20042;-62
2021/01/26 02:31:10;;;;;;;18.13;9.63;;;;;;;0.71;90.60;95833.88;4980068;28;20038;-63
2021/01/26 02:34:12;;;;;;;31.80;14.48;;;;;;;0.72;89.54;95818.34;4965720;28;20074;-63
2021/01/26 02:36:37;;;;;;;41.55;18.42;;;;;;;0.77;88.68;95816.22;4965119;28;20283;-62
2021/01/26 02:39:40;;;;;;;43.85;18.67;;;;;;;0.79;87.99;95822.09;4965596;28;20527;-64
2021/01/26 02:42:18;;;;;;;45.10;17.50;;;;;;;0.64;88.26;95811.88;4965841;28;20448;-62
2021/01/26 02:45:21;;;;;;;36.80;17.38;;;;;;;0.67;89.48;95808.47;4968487;28;20034;-62
2021/01/26 02:48:14;;;;;;;21.05;9.57;;;;;;;0.49;89.91;95815.22;4968542;28;20066;-63
2021/01/26 02:51:04;;;;;;;29.77;14.30;;;;;;;0.37;90.92;95807.00;4966875;28;20046;-62
2021/01/26 02:53:38;;;;;;;23.58;10.98;;;;;;;0.45;90.78;95814.31;4966833;28;20050;-64
2021/01/26 02:56:32;;;;;;;25.65;10.43;;;;;;;0.46;90.88;95854.00;4968382;28;20070;-63
2021/01/26 02:59:04;;;;;;;18.27;8.05;;;;;;;0.54;90.10;95823.19;4959459;28;20081;-63
2021/01/26 03:01:38;;;;;;;18.30;8.52;;;;;;;0.25;90.54;95790.66;4968347;28;20041;-63
2021/01/26 03:04:07;;;;;;;19.25;8.93;;;;;;;0.24;90.00;95769.97;4966957;28;20070;-63
2021/01/26 03:06:34;;;;;;;21.75;9.40;;;;;;;0.22;88.83;95761.38;4968119;28;20061;-62
2021/01/26 03:09:15;;;;;;;27.50;11.40;;;;;;;0.51;89.07;95829.28;4966560;28;20134;-63
2021/01/26 03:11:53;;;;;;;30.98;12.25;;;;;;;0.65;88.73;95818.88;4968106;28;20034;-64
2021/01/26 03:14:29;;;;;;;33.08;14.20;;;;;;;0.55;89.61;95830.22;4967945;28;20054;-64
2021/01/26 03:17:02;;;;;;;41.42;14.88;;;;;;;0.46;90.26;95815.88;4975668;28;20070;-63
2021/01/26 03:19:32;;;;;;;27.23;13.50;;;;;;;0.26;91.00;95854.03;4986009;28;20050;-65
2021/01/26 03:22:00;;;;;;;20.40;9.23;;;;;;;0.45;91.35;95824.41;4987344;28;20031;-63
2021/01/26 03:24:35;;;;;;;19.77;9.30;;;;;;;0.49;90.62;95809.75;4986236;28;20489;-65
2021/01/26 03:27:06;;;;;;;18.67;8.80;;;;;;;0.51;89.02;95812.97;4987763;28;21106;-62
2021/01/26 03:29:36;;;;;;;14.63;8.15;;;;;;;0.44;90.21;95818.16;4985914;28;20037;-62
2021/01/26 03:32:06;;;;;;;19.67;8.73;;;;;;;0.59;88.48;95809.34;4985911;28;20865;-62
2021/01/26 03:34:33;;;;;;;14.02;7.78;;;;;;;0.73;88.29;95820.72;4985668;28;20065;-62
2021/01/26 03:37:00;;;;;;;18.30;8.70;;;;;;;0.68;86.91;95829.09;4985763;28;20478;-64
2021/01/26 03:39:26;;;;;;;34.80;14.02;;;;;;;0.17;87.46;95752.59;4986618;28;20100;-63
2021/01/26 03:41:51;;;;;;;87.53;31.27;;;;;;;0.14;88.19;95748.66;4985407;28;20029;-63
2021/01/26 03:44:17;;;;;;;32.83;14.02;;;;;;;0.19;89.12;95772.13;4985361;28;20042;-62
2021/01/26 03:46:49;;;;;;;15.52;7.47;;;;;;;0.67;88.64;95821.28;4986768;28;20027;-63
2021/01/26 03:49:37;;;;;;;13.18;5.63;;;;;;;-0.40;87.94;95657.31;4986768;28;20529;-63
2021/01/26 03:52:08;;;;;;;14.32;6.47;;;;;;;0.56;89.06;95815.47;4986337;28;20031;-63
2021/01/26 03:54:36;;;;;;;15.23;6.47;;;;;;;0.55;88.59;95808.44;4987050;28;20100;-63
2021/01/26 03:57:14;;;;;;;15.77;7.00;;;;;;;0.54;88.50;95795.94;4986827;28;20030;-63
2021/01/26 03:59:55;;;;;;;14.88;5.88;;;;;;;0.60;89.49;95789.13;4986840;28;20631;-62
2021/01/26 04:02:42;;;;;;;14.27;7.00;;;;;;;0.62;89.35;95792.31;4986437;28;20429;-62
2021/01/26 04:05:16;;;;;;;16.02;5.93;;;;;;;0.69;88.02;95803.47;4986409;28;20042;-63
2021/01/26 04:07:44;;;;;;;20.40;9.63;;;;;;;0.66;87.89;95793.25;4986890;28;20129;-63
2021/01/26 04:10:36;;;;;;;20.58;9.30;;;;;;;0.34;87.82;95742.34;4986718;28;20417;-63
2021/01/26 04:13:07;;;;;;;19.55;8.63;;;;;;;0.62;88.22;95781.44;4986645;28;20521;-65
2021/01/26 04:15:48;;;;;;;17.08;7.20;;;;;;;0.63;88.50;95791.22;4985141;28;20128;-64
2021/01/26 04:18:16;;;;;;;17.55;7.30;;;;;;;0.32;88.79;95722.03;4986249;28;20057;-64
2021/01/26 04:20:41;;;;;;;18.35;7.85;;;;;;;0.37;88.41;95768.88;4986482;28;20145;-64
2021/01/26 04:23:08;;;;;;;16.80;8.88;;;;;;;0.58;88.52;95794.16;4986736;28;20035;-64
2021/01/26 04:25:42;;;;;;;29.38;13.77;;;;;;;0.59;88.76;95793.00;4984853;28;20488;-64
2021/01/26 04:28:13;;;;;;;29.88;14.50;;;;;;;0.65;88.76;95794.38;4986511;28;20543;-62
2021/01/26 04:30:39;;;;;;;34.22;15.80;;;;;;;0.25;88.69;95738.91;4986053;28;20390;-62
2021/01/26 04:33:07;;;;;;;55.03;24.00;;;;;;;0.24;88.87;95759.09;4984629;28;20464;-61
2021/01/26 04:35:33;;;;;;;49.00;22.25;;;;;;;0.44;88.35;95769.16;4986011;28;20113;-65
2021/01/26 04:37:59;;;;;;;55.22;23.65;;;;;;;0.46;88.45;95779.72;5000764;28;20121;-65
2021/01/26 04:40:26;;;;;;;62.50;29.38;;;;;;;0.48;89.08;95794.56;4985863;28;20105;-64
2021/01/26 04:43:22;;;;;;;62.80;29.08;;;;;;;0.49;88.45;95798.09;4986303;28;20030;-63
2021/01/26 04:45:47;;;;;;;45.53;20.80;;;;;;;0.50;88.22;95789.59;4986255;28;20146;-63
2021/01/26 04:48:23;;;;;;;49.45;23.17;;;;;;;-0.38;89.34;95676.81;4986012;28;20069;-64
2021/01/26 04:51:06;;;;;;;40.50;19.67;;;;;;;0.55;88.62;95796.75;4985928;28;20413;-61
2021/01/26 04:53:53;;;;;;;37.47;18.63;;;;;;;0.47;88.25;95801.16;4985729;28;20082;-61
2021/01/26 04:56:30;;;;;;;37.38;15.43;;;;;;;0.45;87.82;95814.31;4985518;28;20038;-62
2021/01/26 04:59:24;;;;;;;40.22;15.02;;;;;;;0.45;88.00;95800.69;4985718;28;20161;-61
2021/01/26 05:02:26;;;;;;;37.80;16.55;;;;;;;0.43;89.37;95804.88;4985515;28;20041;-62
2021/01/26 05:05:00;;;;;;;80.93;30.38;;;;;;;0.44;88.70;95807.28;4965731;28;20042;-61
2021/01/26 05:07:30;;;;;;;61.85;25.58;;;;;;;-0.01;87.87;95754.69;4966074;28;20118;-62
2021/01/26 05:10:13;;;;;;;87.43;28.73;;;;;;;0.40;87.51;95817.22;4965886;28;20046;-60
2021/01/26 05:12:57;;;;;;;72.37;29.73;;;;;;;0.35;87.84;95825.59;4965728;28;20316;-62
2021/01/26 05:15:28;;;;;;;142.05;55.92;;;;;;;0.37;87.13;95822.53;4964138;28;20046;-61
2021/01/26 05:18:02;;;;;;;73.65;27.30;;;;;;;0.39;87.45;95823.00;4978335;28;20054;-62
2021/01/26 05:20:34;;;;;;;94.35;35.90;;;;;;;0.31;88.80;95808.34;4983773;28;20034;-61
2021/01/26 05:23:18;;;;;;;72.63;29.58;;;;;;;0.20;89.27;95812.63;4985588;28;20034;-62
2021/01/26 05:25:43;;;;;;;81.68;32.05;;;;;;;-0.03;89.65;95768.63;4985188;28;20046;-62
2021/01/26 05:28:09;;;;;;;103.32;37.15;;;;;;;0.14;90.87;95813.97;4985180;28;20034;-64
2021/01/26 05:30:37;;;;;;;120.65;52.20;;;;;;;0.18;91.22;95809.44;4984517;28;20038;-62
2021/01/26 05:33:11;;;;;;;155.55;63.05;;;;;;;0.27;91.57;95804.69;4985063;28;20053;-64
2021/01/26 05:35:39;;;;;;;120.35;48.95;;;;;;;-0.54;91.14;95717.38;4983453;28;20410;-62
2021/01/26 05:38:05;;;;;;;107.00;50.83;;;;;;;0.06;91.58;95768.56;4983680;28;20565;-62
2021/01/26 05:40:36;;;;;;;104.43;48.33;;;;;;;-0.01;90.94;95779.19;4985702;28;20053;-63
2021/01/26 05:43:06;;;;;;;133.75;56.63;;;;;;;0.14;91.93;95819.41;4984045;28;20032;-60
2021/01/26 05:45:37;;;;;;;139.88;52.88;;;;;;;0.23;91.83;95811.16;4985362;28;20042;-63
2021/01/26 05:48:10;;;;;;;86.63;40.90;;;;;;;0.28;91.39;95816.41;4985021;28;20859;-62
2021/01/26 05:50:37;;;;;;;69.68;34.00;;;;;;;0.28;90.27;95824.56;4982848;28;20038;-61
2021/01/26 05:53:11;;;;;;;60.10;27.40;;;;;;;0.38;91.15;95816.75;4982703;28;20506;-63
2021/01/26 05:55:37;;;;;;;51.65;23.17;;;;;;;0.45;89.80;95814.31;4985175;28;20039;-62
2021/01/26 05:58:08;;;;;;;44.45;21.75;;;;;;;0.03;89.18;95741.22;4983405;28;20037;-61
2021/01/26 06:00:35;;;;;;;68.82;27.52;;;;;;;0.48;90.16;95812.81;4983687;28;20034;-62
2021/01/26 06:03:18;;;;;;;69.65;28.27;;;;;;;0.38;88.53;95792.25;4985096;28;20116;-62
2021/01/26 06:06:07;;;;;;;95.90;37.35;;;;;;;0.54;88.21;95823.19;4983336;28;20125;-62
2021/01/26 06:08:48;;;;;;;57.83;25.55;;;;;;;0.55;88.00;95815.81;4967589;28;20039;-61
2021/01/26 06:11:18;;;;;;;76.70;31.83;;;;;;;0.62;88.42;95822.28;4965722;28;20623;-62
2021/01/26 06:13:43;;;;;;;43.83;19.65;;;;;;;0.67;88.76;95838.44;4965406;28;20077;-63
2021/01/26 06:16:12;;;;;;;32.45;15.68;;;;;;;0.02;88.26;95724.09;4981832;28;20857;-62
2021/01/26 06:18:38;;;;;;;46.80;24.88;;;;;;;0.17;87.06;95720.75;4982497;28;20054;-62
2021/01/26 06:21:11;;;;;;;38.15;19.15;;;;;;;0.76;87.49;95824.72;4969140;28;20038;-63
2021/01/26 06:23:38;;;;;;;51.83;24.73;;;;;;;0.82;88.34;95805.06;4967445;28;20122;-62
2021/01/26 06:26:07;;;;;;;51.08;20.90;;;;;;;0.38;87.71;95737.78;4968842;28;20046;-63
2021/01/26 06:28:35;;;;;;;46.65;25.48;;;;;;;1.13;87.81;95810.78;4968987;28;20049;-61
2021/01/26 06:31:07;;;;;;;31.08;15.75;;;;;;;1.18;87.79;95816.03;4968969;28;20502;-61
2021/01/26 06:33:46;;;;;;;18.45;9.43;;;;;;;1.36;86.63;95820.09;4967007;28;20043;-62
2021/01/26 06:36:43;;;;;;;25.83;12.23;;;;;;;1.43;86.77;95808.63;4968709;28;20026;-62
2021/01/26 06:39:50;;;;;;;25.33;12.48;;;;;;;1.52;85.70;95812.81;4968719;28;20047;-62
2021/01/26 06:42:33;;;;;;;44.47;21.17;;;;;;;1.55;84.46;95795.78;4945702;28;20046;-62
2021/01/26 06:45:13;;;;;;;54.87;29.60;;;;;;;1.76;83.06;95809.25;4968437;28;20043;-63
2021/01/26 06:47:55;;;;;;;57.47;28.70;;;;;;;1.73;83.65;95804.50;4968452;28;20034;-62
2021/01/26 06:50:42;;;;;;;48.28;22.40;;;;;;;1.76;83.72;95819.38;4968436;28;20124;-61
2021/01/26 06:53:30;;;;;;;43.22;19.60;;;;;;;1.84;83.46;95810.25;4968424;28;20027;-62
2021/01/26 06:56:08;;;;;;;41.72;19.00;;;;;;;1.95;82.54;95798.53;4966834;28;20043;-64
2021/01/26 06:59:01;;;;;;;37.25;18.25;;;;;;;2.11;82.02;95804.06;4968231;28;20038;-63
2021/01/26 07:01:36;;;;;;;33.20;18.30;;;;;;;2.13;81.12;95801.78;4966774;28;20035;-63
2021/01/26 07:04:19;;;;;;;35.92;18.33;;;;;;;2.28;79.94;95806.47;4968127;28;20097;-62
2021/01/26 07:07:12;;;;;;;41.63;21.25;;;;;;;2.32;80.51;95804.66;4967362;28;20490;-62
2021/01/26 07:09:48;;;;;;;55.33;28.02;;;;;;;2.36;80.31;95797.34;4968657;28;20523;-62
2021/01/26 07:12:16;;;;;;;55.55;27.02;;;;;;;2.36;79.91;95811.00;4966821;28;20030;-63
2021/01/26 07:15:00;;;;;;;45.55;23.48;;;;;;;2.44;80.10;95829.19;4966742;28;20051;-62
2021/01/26 07:17:35;;;;;;;49.85;23.83;;;;;;;2.47;79.71;95812.09;4975972;28;20138;-62
2021/01/26 07:20:43;;;;;;;50.45;23.42;;;;;;;2.52;80.35;95817.31;4986184;28;20076;-62
2021/01/26 07:23:32;;;;;;;29.67;17.15;;;;;;;2.60;79.93;95819.09;4968138;28;20030;-62
2021/01/26 07:26:28;;;;;;;34.03;16.65;;;;;;;2.76;79.75;95817.19;4984046;28;20108;-60
2021/01/26 07:28:56;;;;;;;21.17;11.80;;;;;;;2.92;78.31;95820.75;4980625;28;20034;-66
2021/01/26 07:31:32;;;;;;;20.45;10.80;;;;;;;3.00;78.24;95814.31;4987016;28;20505;-68
2021/01/26 07:34:25;;;;;;;22.85;11.43;;;;;;;2.90;78.80;95806.63;4986036;28;20036;-63
2021/01/26 07:37:22;;;;;;;16.23;8.90;;;;;;;2.74;81.14;95800.34;4967405;28;20048;-63
2021/01/26 07:40:03;;;;;;;17.42;9.43;;;;;;;3.16;79.61;95785.03;4968960;28;20051;-63
2021/01/26 07:42:36;;;;;;;43.33;23.38;;;;;;;2.94;78.27;95728.22;4967870;28;20492;-60
2021/01/26 07:45:32;;;;;;;59.33;32.08;;;;;;;2.47;77.08;95659.09;4972738;28;20710;-60
2021/01/26 07:48:18;;;;;;;80.18;33.95;;;;;;;2.98;77.54;95708.03;4966928;28;20034;-64
2021/01/26 07:50:51;;;;;;;55.05;28.25;;;;;;;1.70;77.91;95471.47;4967384;28;20031;-62
2021/01/26 07:53:28;;;;;;;;;;;;;;;3.58;78.61;95791.53;4967400;28;20039;-62
2021/01/26 07:56:15;;;;;;;73.88;37.92;;;;;;;2.52;78.08;95634.22;4970270;28;20207;-63
2021/01/26 07:58:44;;;;;;;76.97;39.13;;;;;;;3.90;78.28;95768.41;4986243;28;20043;-62
2021/01/26 08:01:13;;;;;;;71.25;39.03;;;;;;;4.14;76.72;95756.38;4983831;28;20037;-61
2021/01/26 08:03:39;;;;;;;59.65;30.40;;;;;;;3.46;74.93;95679.44;4986800;28;20039;-62
2021/01/26 08:06:05;;;;;;;73.00;36.78;;;;;;;4.33;75.15;95768.09;4986652;28;20678;-61
2021/01/26 08:08:39;;;;;;;107.63;52.80;;;;;;;4.17;74.04;95712.56;4985722;28;20547;-64
2021/01/26 08:11:06;;;;;;;134.00;64.35;;;;;;;4.67;73.50;95760.94;4986516;28;20026;-65
2021/01/26 08:13:32;;;;;;;130.88;63.65;;;;;;;4.27;73.39;95664.59;4985886;28;20405;-61
2021/01/26 08:16:11;;;;;;;99.45;52.05;;;;;;;5.05;72.51;95776.50;4984240;28;20422;-62
2021/01/26 08:18:37;;;;;;;123.75;64.07;;;;;;;4.05;71.33;95633.28;5000243;28;20101;-62
2021/01/26 08:21:28;;;;;;;114.40;58.20;;;;;;;4.74;73.03;95782.22;4985608;28;20042;-61
2021/01/26 08:24:22;;;;;;;93.18;48.42;;;;;;;4.04;72.68;95667.34;4966581;28;20038;-68
2021/01/26 08:26:54;;;;;;;76.65;40.13;;;;;;;5.19;70.85;95779.47;4965354;28;20034;-63
2021/01/26 08:29:38;;;;;;;72.90;35.72;;;;;;;5.29;71.23;95787.09;4966911;28;20054;-65
2021/01/26 08:32:22;;;;;;;82.57;40.25;;;;;;;5.39;70.24;95781.78;4979424;28;20104;-68
2021/01/26 08:35:10;;;;;;;72.35;38.22;;;;;;;4.98;72.75;95793.63;4985863;28;20497;-63
2021/01/26 08:37:41;;;;;;;56.63;29.40;;;;;;;4.83;75.83;95793.72;5008687;28;20030;-65
2021/01/26 08:40:13;;;;;;;38.85;22.90;;;;;;;3.94;73.83;95654.22;4984988;28;20042;-64
2021/01/26 08:42:41;;;;;;;40.78;20.25;;;;;;;4.83;74.15;95796.47;4984338;28;20030;-63
2021/01/26 08:45:38;;;;;;;32.95;16.38;;;;;;;3.38;74.85;95603.81;4984983;28;20062;-64
2021/01/26 08:48:07;;;;;;;31.75;17.10;;;;;;;5.06;74.55;95802.78;4977789;28;20038;-69
2021/01/26 08:50:35;;;;;;;44.83;19.75;;;;;;;4.55;73.57;95707.03;4985615;28;20050;-67
2021/01/26 08:53:21;;;;;;;36.60;19.15;;;;;;;5.06;72.80;95731.44;4972510;28;20035;-63
2021/01/26 08:55:51;;;;;;;71.70;31.00;;;;;;;5.05;72.10;95736.13;4983120;28;20177;-62
2021/01/26 08:58:35;;;;;;;96.38;38.70;;;;;;;5.67;71.97;95793.25;4984991;28;20111;-64
2021/01/26 09:01:01;;;;;;;66.15;29.83;;;;;;;6.02;70.07;95793.00;4984344;28;20089;-65
2021/01/26 09:03:32;;;;;;;44.03;23.08;;;;;;;3.79;68.74;95430.56;4985029;28;20066;-63
2021/01/26 09:06:12;;;;;;;42.22;20.70;;;;;;;6.06;69.71;95793.81;4984615;28;20109;-68
2021/01/26 09:08:40;;;;;;;36.97;21.45;;;;;;;5.94;70.33;95796.81;4984960;28;20409;-67
2021/01/26 09:11:37;;;;;;;51.78;24.92;;;;;;;5.92;69.95;95799.13;4984982;28;20434;-67
2021/01/26 09:14:11;;;;;;;43.80;21.63;;;;;;;5.87;70.17;95791.19;4984345;28;20533;-67
2021/01/26 09:16:38;;;;;;;36.90;18.27;;;;;;;5.82;71.27;95794.25;4984993;28;20046;-66
2021/01/26 09:19:22;;;;;;;47.85;23.75;;;;;;;5.14;71.41;95690.03;4984097;28;20038;-68
2021/01/26 09:21:47;;;;;;;;;;;;;;;5.40;73.09;95804.56;4985043;28;20036;-66
2021/01/26 09:24:20;;;;;;;105.75;44.88;;;;;;;5.18;74.20;95808.09;4985505;28;20323;-66
2021/01/26 09:26:45;;;;;;;56.92;32.08;;;;;;;5.26;74.07;95798.81;4984833;28;20121;-66
2021/01/26 09:29:28;;;;;;;47.20;25.00;;;;;;;4.97;72.48;95730.88;5016429;28;20049;-65
2021/01/26 09:31:55;;;;;;;37.55;19.42;;;;;;;5.01;73.58;95764.69;4984860;28;20110;-62
2021/01/26 09:34:27;;;;;;;82.47;40.38;;;;;;;5.03;73.76;95767.81;4983318;28;20038;-68
2021/01/26 09:37:28;;;;;;;121.47;49.75;;;;;;;5.63;73.08;95792.38;4984227;28;20034;-67
2021/01/26 09:40:06;;;;;;;108.63;49.63;;;;;;;5.87;70.38;95785.69;4982774;28;20054;-70
2021/01/26 09:42:32;;;;;;;96.90;49.17;;;;;;;5.48;68.90;95730.16;5015407;28;20038;-69
2021/01/26 09:44:58;;;;;;;98.35;51.53;;;;;;;5.95;69.79;95776.38;4982084;28;20104;-69
2021/01/26 09:47:25;;;;;;;112.80;60.15;;;;;;;5.38;70.83;95708.03;4984049;28;20872;-68
2021/01/26 09:49:59;;;;;;;64.97;34.28;;;;;;;5.13;70.08;95695.88;4983709;28;20038;-68
2021/01/26 09:52:25;;;;;;;78.25;41.38;;;;;;;5.66;69.82;95758.66;4988166;28;20118;-64
2021/01/26 09:55:00;;;;;;;79.68;43.70;;;;;;;5.73;70.29;95777.22;4988007;28;20473;-65
2021/01/26 09:57:26;;;;;;;61.53;33.90;;;;;;;4.25;70.64;95508.78;4987546;28;20039;-67
2021/01/26 09:59:53;;;;;;;71.10;35.40;;;;;;;6.03;70.82;95778.88;4989301;28;20045;-66
2021/01/26 10:02:19;;;;;;;72.65;38.13;;;;;;;4.82;69.97;95613.88;4985666;28;20057;-66
2021/01/26 10:04:45;;;;;;;73.47;39.85;;;;;;;6.27;69.66;95779.56;4988069;28;20042;-67
2021/01/26 10:07:14;;;;;;;63.97;34.10;;;;;;;3.76;69.47;95370.28;4987526;28;20520;-64
2021/01/26 10:09:40;;;;;;;54.97;25.42;;;;;;;6.34;70.44;95777.69;4987621;28;20042;-64
2021/01/26 10:12:28;;;;;;;74.57;33.40;;;;;;;6.40;69.81;95773.47;4988510;28;20406;-67
2021/01/26 10:15:12;;;;;;;69.88;33.10;;;;;;;5.71;71.80;95697.13;4988710;28;20039;-68
2021/01/26 10:17:53;;;;;;;75.70;36.08;;;;;;;6.07;72.67;95767.91;4986754;28;20521;-66
2021/01/26 10:20:29;;;;;;;68.60;34.95;;;;;;;6.18;72.85;95757.84;4988336;28;20092;-66
2021/01/26 10:23:23;;;;;;;71.30;33.60;;;;;;;6.25;72.12;95757.94;4988125;28;20047;-68
2021/01/26 10:25:49;;;;;;;190.90;83.90;;;;;;;5.44;72.21;95643.41;4994193;28;20128;-68
2021/01/26 10:28:25;;;;;;;91.70;46.08;;;;;;;5.63;71.08;95618.53;4987437;28;20521;-68
2021/01/26 10:30:51;;;;;;;67.13;38.15;;;;;;;6.36;71.31;95734.13;4987503;28;20030;-66
2021/01/26 10:33:37;;;;;;;88.32;44.22;;;;;;;6.70;70.13;95757.69;4987811;28;20049;-63
2021/01/26 10:36:21;;;;;;;89.82;44.63;;;;;;;6.69;70.20;95750.59;5002499;28;20030;-62
2021/01/26 10:38:46;;;;;;;;;;;;;;;6.82;69.31;95748.38;4988612;28;20501;-66
2021/01/26 10:41:18;;;;;;;97.45;50.15;;;;;;;6.56;70.58;95756.75;4988205;28;20012;-66
2021/01/26 10:43:44;;;;;;;62.10;34.40;;;;;;;6.16;70.22;95674.97;4986951;28;20068;-67
2021/01/26 10:46:12;;;;;;;70.38;36.60;;;;;;;5.80;69.97;95598.75;4987452;28;20065;-67
2021/01/26 10:48:42;;;;;;;96.53;48.10;;;;;;;6.77;69.46;95746.75;4987889;28;20042;-62
2021/01/26 10:51:29;;;;;;;122.93;53.25;;;;;;;5.87;69.36;95615.34;4985953;28;20124;-64
2021/01/26 10:53:55;;;;;;;105.75;50.08;;;;;;;4.12;69.92;95332.09;4980178;28;20067;-67
2021/01/26 10:56:22;;;;;;;76.57;34.72;;;;;;;5.94;69.86;95616.22;4967660;28;20125;-66
2021/01/26 10:58:49;;;;;;;60.47;29.48;;;;;;;6.80;71.43;95746.00;4982699;28;20071;-65
2021/01/26 11:01:20;;;;;;;40.45;22.10;;;;;;;6.76;72.16;95734.19;4972363;28;20069;-70
2021/01/26 11:03:46;;;;;;;35.33;16.08;;;;;;;5.99;70.86;95650.84;4986093;28;20066;-64
2021/01/26 11:06:11;;;;;;;17.13;9.77;;;;;;;5.90;71.75;95609.09;4969501;28;20506;-66
2021/01/26 11:08:37;;;;;;;38.13;20.05;;;;;;;6.80;72.72;95740.50;4968263;28;20049;-67
2021/01/26 11:11:03;;;;;;;8.98;5.13;;;;;;;5.86;72.89;95613.78;4967425;28;20035;-70
2021/01/26 11:13:29;;;;;;;4.20;2.17;;;;;;;6.40;72.66;95745.97;4967063;28;20045;-69
2021/01/26 11:15:55;;;;;;;7.35;3.97;;;;;;;6.40;75.28;95745.97;4965987;28;20039;-66
2021/01/26 11:18:20;;;;;;;2.85;1.70;;;;;;;6.22;75.65;95736.69;4966496;28;20035;-67
2021/01/26 11:20:46;;;;;;;3.20;1.90;;;;;;;5.32;76.15;95613.44;4968085;28;20409;-67
2021/01/26 11:23:11;;;;;;;6.40;3.55;;;;;;;6.15;77.50;95742.09;4967861;28;20843;-62
2021/01/26 11:25:37;;;;;;;7.07;3.20;;;;;;;5.77;78.43;95690.94;4968058;28;20031;-71
2021/01/26 11:28:05;;;;;;;7.63;2.50;;;;;;;5.92;80.23;95755.16;4967120;28;20414;-63
2021/01/26 11:30:31;;;;;;;5.63;3.10;;;;;;;4.95;81.50;95624.25;4966392;28;20085;-67
2021/01/26 11:32:56;;;;;;;2.80;1.90;;;;;;;4.73;81.14;95588.66;4967303;28;20039;-65
2021/01/26 11:35:25;;;;;;;13.73;8.13;;;;;;;5.94;83.63;95764.59;4966943;28;20462;-67
2021/01/26 11:37:51;;;;;;;3.67;2.00;;;;;;;4.34;80.42;95511.28;4967875;28;20093;-66
2021/01/26 11:40:18;;;;;;;8.05;4.13;;;;;;;5.66;81.84;95708.44;4953435;28;20075;-65
2021/01/26 11:42:44;;;;;;;26.02;14.60;;;;;;;5.42;81.71;95676.72;4948094;28;20039;-65
2021/01/26 11:45:13;;;;;;;8.05;4.25;;;;;;;6.02;81.81;95727.03;4948368;28;20387;-65
2021/01/26 11:47:39;;;;;;;22.65;11.32;;;;;;;6.26;80.51;95742.25;4947753;28;20409;-63
2021/01/26 11:50:07;;;;;;;16.73;8.27;;;;;;;5.41;79.83;95630.41;4962509;28;20043;-67
2021/01/26 11:52:33;;;;;;;6.57;4.00;;;;;;;6.38;77.65;95759.28;4963028;28;20053;-62
2021/01/26 11:54:58;;;;;;;6.95;4.03;;;;;;;6.41;78.07;95761.28;4961809;28;20481;-63
2021/01/26 11:57:24;;;;;;;33.25;18.33;;;;;;;6.55;80.29;95766.97;4965811;28;20672;-64